»·PEaware :: N2102W KSEE-KSAN

N2102W :: KSEE-KSAN

FLIGHT INFORMATION

Flight Status: Arrived
Operator: Privately registered:
United States
More flights under this callsign
Pilot: Eric G. (5941)
Aircraft: BEECH AIRCRAFT PREMIER
(PRM1)
More flights by this aircraft type
Origin: KSEE Gillespie
United States
Destination: KSAN San Diego Intl-Lindbergh
United States
More flights between these airports :: More routes between these airports
Route: MZB V165 SARGS
File this flight plan on PilotEdge
Remarks:
Altitude:
(Current/Filed)
6,000ft
Speed:
(Current/Filed)
250kts
Departed: 16-May-20 11:06 AM
Arrived: 16-May-20 11:20 AM
Distance/Time
Traveled:
12nm/0:13
Distance/Time
To Go:
Arrived

Flight Plot

Page will automatically refresh every two minutes.

Flight plan parsing failed; only flown route is shown


Map Options




Map Legend


Flown Route
Filed Route
Departure Airport
Arrival Airport
Navaid (VOR, NDB)
Fix

Horizontal Profiles

Position Reports

Time Latitude Longitude Heading Altitude Ground
Speed
16-May-20 10:34 32.824624 -116.969781 181 392ft 0kts
16-May-20 10:35 32.824624 -116.969781 181 392ft 0kts
16-May-20 10:36 32.824623 -116.969781 181 392ft 0kts
16-May-20 10:37 32.824621 -116.969781 181 392ft 0kts
16-May-20 10:38 32.824619 -116.969781 181 392ft 0kts
16-May-20 10:39 32.824595 -116.970046 335 392ft 3kts
16-May-20 10:40 32.824785 -116.970171 347 392ft 0kts
16-May-20 10:41 32.824787 -116.970171 347 392ft 0kts
16-May-20 10:42 32.824789 -116.970172 347 392ft 0kts
16-May-20 10:43 32.824791 -116.970172 347 392ft 0kts
16-May-20 10:44 32.824793 -116.970173 347 392ft 0kts
16-May-20 10:45 32.824794 -116.970173 347 392ft 0kts
16-May-20 10:46 32.824796 -116.970174 347 392ft 0kts
16-May-20 10:47 32.824798 -116.970174 347 392ft 0kts
16-May-20 10:48 32.824800 -116.970175 347 392ft 0kts
16-May-20 10:49 32.824802 -116.970175 347 392ft 0kts
16-May-20 10:50 32.824804 -116.970176 347 392ft 0kts
16-May-20 10:51 32.824805 -116.970176 347 392ft 0kts
16-May-20 10:52 32.824807 -116.970177 347 392ft 0kts
16-May-20 10:53 32.824809 -116.970177 347 392ft 0kts
16-May-20 10:54 32.824811 -116.970178 347 392ft 0kts
16-May-20 10:55 32.824813 -116.970178 347 392ft 0kts
16-May-20 10:56 32.824815 -116.970179 347 392ft 0kts
16-May-20 10:57 32.824816 -116.970179 347 392ft 0kts
16-May-20 10:58 32.824818 -116.970180 347 392ft 0kts
16-May-20 10:59 32.824820 -116.970180 347 392ft 0kts
16-May-20 11:00 32.824822 -116.970181 347 392ft 0kts
16-May-20 11:01 32.824831 -116.970183 347 392ft 0kts
16-May-20 11:02 32.824702 -116.967063 99 392ft 13kts
16-May-20 11:03 32.825344 -116.964482 16 392ft 6kts
16-May-20 11:04 32.826052 -116.964486 341 392ft 6kts
16-May-20 11:05 32.829703 -116.982123 281 566ft 159kts
16-May-20 11:06 32.863435 -117.018604 13 3365ft 243kts
16-May-20 11:07 32.857546 -116.972381 177 2994ft 180kts
16-May-20 11:08 32.805673 -116.975769 178 2994ft 195kts
16-May-20 11:09 32.776959 -117.021586 268 3004ft 218kts
16-May-20 11:10 32.781234 -117.090565 272 2989ft 187kts
16-May-20 11:11 32.782641 -117.166839 270 3010ft 243kts
16-May-20 11:12 32.822555 -117.192840 51 3978ft 229kts
16-May-20 11:13 32.822901 -117.116402 101 4005ft 229kts
16-May-20 11:14 32.798038 -117.056905 133 3965ft 180kts
16-May-20 11:15 32.758278 -117.055790 164 3230ft 150kts
16-May-20 11:16 32.721746 -117.068394 224 1966ft 145kts
16-May-20 11:17 32.714968 -117.113928 284 1350ft 142kts
16-May-20 11:18 32.725741 -117.157725 283 467ft 136kts
16-May-20 11:19 32.733544 -117.189644 284 20ft 23kts
16-May-20 11:21 32.734620 -117.190813 31 20ft 2kts
16-May-20 11:22 32.733522 -117.184820 106 20ft 24kts
16-May-20 11:23 32.733566 -117.179451 16 20ft 0kts
16-May-20 11:24 32.733566 -117.179451 16 20ft 0kts
16-May-20 11:25 32.733566 -117.179451 16 20ft 0kts

Navigation Log

Ident Type
Flight plan parsing failed, navigation log unavailable